Time;durP1;ratioP1;P1;durP2;ratioP2;P2;SDS_P1;SDS_P2;PMS_P1;PMS_P2;Temp;Humidity;BMP_temperature;BMP_pressure;BME280_temperature;BME280_humidity;BME280_pressure;Samples;Min_cycle;Max_cycle;Signal;HPM_P1;HPM_P2
2022/03/09 00:01:34;;;;;;;7.57;5.37;;;2.50;1.00;;;;;;4878556;29;20223;-51
2022/03/09 00:04:01;;;;;;;11.30;5.33;;;2.40;1.00;;;;;;4898027;29;20564;-52
2022/03/09 00:06:26;;;;;;;7.40;5.07;;;2.40;1.00;;;;;;4896420;29;20432;-51
2022/03/09 00:08:52;;;;;;;12.60;5.67;;;2.40;1.00;;;;;;4895936;29;20487;-51
2022/03/09 00:11:18;;;;;;;11.57;5.47;;;2.30;1.00;;;;;;4894890;29;20243;-50
2022/03/09 00:13:44;;;;;;;11.53;5.87;;;2.30;1.00;;;;;;4895576;29;20861;-51
2022/03/09 00:16:09;;;;;;;10.13;6.30;;;2.30;1.00;;;;;;4895246;29;20439;-51
2022/03/09 00:18:35;;;;;;;12.73;5.20;;;2.30;1.00;;;;;;4895589;29;20219;-51
2022/03/09 00:21:00;;;;;;;9.90;5.30;;;2.30;1.00;;;;;;4899417;29;20208;-52
2022/03/09 00:23:26;;;;;;;8.70;5.50;;;2.30;1.00;;;;;;4911905;29;20818;-51
2022/03/09 00:25:51;;;;;;;8.90;4.67;;;2.20;1.00;;;;;;4896111;29;20226;-51
2022/03/09 00:28:17;;;;;;;9.40;5.20;;;2.20;1.00;;;;;;4895554;29;20605;-52
2022/03/09 00:30:42;;;;;;;9.97;5.33;;;2.20;1.00;;;;;;4883008;29;20196;-51
2022/03/09 00:33:08;;;;;;;11.10;5.93;;;2.10;1.00;;;;;;4895279;29;20218;-51
2022/03/09 00:35:37;;;;;;;9.80;5.37;;;2.10;1.00;;;;;;4894433;29;20196;-51
2022/03/09 00:38:03;;;;;;;10.60;5.50;;;2.10;1.00;;;;;;4895506;29;20288;-52
2022/03/09 00:40:28;;;;;;;7.70;5.37;;;2.00;1.00;;;;;;4894726;29;20870;-52
2022/03/09 00:42:56;;;;;;;11.20;5.50;;;2.00;5.60;;;;;;4896849;29;20203;-54
2022/03/09 00:45:22;;;;;;;13.70;6.27;;;2.00;1.00;;;;;;4902757;29;20196;-52
2022/03/09 00:47:47;;;;;;;9.03;5.60;;;1.90;8.00;;;;;;4897378;29;20475;-52
2022/03/09 00:50:13;;;;;;;9.40;5.60;;;1.90;8.30;;;;;;4904195;29;20215;-51
2022/03/09 00:52:38;;;;;;;8.60;5.07;;;1.80;19.30;;;;;;4884381;29;20232;-51
2022/03/09 00:55:05;;;;;;;13.47;5.30;;;1.80;34.20;;;;;;4905005;29;20551;-60
2022/03/09 00:57:31;;;;;;;9.07;5.50;;;1.80;32.40;;;;;;4894924;29;20184;-51
2022/03/09 00:59:56;;;;;;;8.73;5.40;;;1.70;39.20;;;;;;4895177;29;20471;-52
2022/03/09 01:02:22;;;;;;;7.97;5.03;;;1.70;41.00;;;;;;4894930;29;20172;-52
2022/03/09 01:04:47;;;;;;;9.50;5.67;;;1.70;50.10;;;;;;4891267;29;20695;-51
2022/03/09 01:07:13;;;;;;;11.33;5.83;;;1.60;76.40;;;;;;4893517;29;20202;-52
2022/03/09 01:09:38;;;;;;;10.03;5.50;;;1.60;79.90;;;;;;4893146;29;20642;-52
2022/03/09 01:12:04;;;;;;;10.27;5.67;;;1.60;78.20;;;;;;4893898;29;20188;-52
2022/03/09 01:14:30;;;;;;;11.57;6.30;;;1.60;96.40;;;;;;4880764;29;20181;-52
2022/03/09 01:16:55;;;;;;;11.80;7.57;;;1.50;89.10;;;;;;4882180;29;20256;-52
2022/03/09 01:19:21;;;;;;;13.40;6.67;;;1.50;96.50;;;;;;4888962;29;20187;-54
2022/03/09 01:21:47;;;;;;;11.70;6.10;;;1.50;99.90;;;;;;4876313;29;20190;-53
2022/03/09 01:24:12;;;;;;;9.37;5.33;;;1.50;99.90;;;;;;4898865;29;20191;-52
2022/03/09 01:26:38;;;;;;;9.67;5.27;;;1.40;99.90;;;;;;4895056;29;20173;-51
2022/03/09 01:29:04;;;;;;;10.17;5.97;;;1.30;99.90;;;;;;4906059;29;20193;-55
2022/03/09 01:31:30;;;;;;;7.03;4.53;;;1.30;99.90;;;;;;4913607;29;20649;-52
2022/03/09 01:33:56;;;;;;;9.90;5.40;;;1.30;99.90;;;;;;4895655;29;20440;-52
2022/03/09 01:36:21;;;;;;;11.53;5.73;;;1.20;99.90;;;;;;4894635;29;20796;-52
2022/03/09 01:38:47;;;;;;;8.97;5.43;;;1.20;99.90;;;;;;4893837;29;20211;-55
2022/03/09 01:41:13;;;;;;;9.30;5.00;;;1.20;99.90;;;;;;4894545;29;20624;-51
2022/03/09 01:43:39;;;;;;;11.47;5.47;;;1.20;99.90;;;;;;4897067;29;20240;-52
2022/03/09 01:46:05;;;;;;;10.97;5.17;;;1.10;99.90;;;;;;4898395;29;20560;-52
2022/03/09 01:48:32;;;;;;;12.83;5.20;;;1.10;99.90;;;;;;4893592;29;20460;-51
2022/03/09 01:50:58;;;;;;;10.60;5.70;;;1.10;99.90;;;;;;4879750;29;20447;-51
2022/03/09 01:53:23;;;;;;;8.87;5.37;;;1.10;99.90;;;;;;4880825;29;20262;-52
2022/03/09 01:55:49;;;;;;;9.07;5.50;;;1.00;99.90;;;;;;4897490;29;20949;-52
2022/03/09 01:58:14;;;;;;;9.53;4.90;;;1.00;99.90;;;;;;4897159;29;20188;-52
2022/03/09 02:00:40;;;;;;;9.23;5.87;;;0.90;99.90;;;;;;4897359;29;20211;-51
2022/03/09 02:03:06;;;;;;;8.30;5.90;;;0.90;99.90;;;;;;4897500;29;20634;-50
2022/03/09 02:05:32;;;;;;;11.70;6.03;;;0.90;99.90;;;;;;4895437;29;20195;-49
2022/03/09 02:10:43;;;;;;;14.43;5.80;;;0.80;99.90;;;;;;4897561;29;21335;-50
2022/03/09 02:13:08;;;;;;;8.30;5.10;;;0.70;99.90;;;;;;4897268;29;20453;-51
2022/03/09 02:15:34;;;;;;;9.57;5.30;;;0.70;99.90;;;;;;4897488;29;21001;-51
2022/03/09 02:18:00;;;;;;;11.37;5.83;;;0.50;99.90;;;;;;4897286;29;20208;-50
2022/03/09 02:20:26;;;;;;;10.07;5.80;;;0.50;99.90;;;;;;4895963;29;20212;-50
2022/03/09 02:22:53;;;;;;;16.20;5.77;;;0.30;99.90;;;;;;4897279;29;20194;-50
2022/03/09 02:25:19;;;;;;;8.50;5.90;;;0.20;99.90;;;;;;4896386;29;20455;-49
2022/03/09 02:27:45;;;;;;;11.67;7.10;;;0.20;99.90;;;;;;4897158;29;20436;-50
2022/03/09 02:30:16;;;;;;;11.13;6.03;;;0.10;99.90;;;;;;4880013;29;20456;-50
2022/03/09 02:32:47;;;;;;;13.33;7.00;;;0.10;99.90;;;;;;4896580;29;20912;-50
2022/03/09 02:35:14;;;;;;;15.97;7.73;;;0.10;1.00;;;;;;4895027;29;20443;-50
2022/03/09 02:37:41;;;;;;;12.30;6.90;;;0.10;1.00;;;;;;4896466;29;20592;-49
2022/03/09 02:40:15;;;;;;;13.93;7.33;;;0.20;1.00;;;;;;4896716;29;21200;-51
2022/03/09 02:42:42;;;;;;;10.73;6.40;;;0.20;1.00;;;;;;4896907;29;20423;-49
2022/03/09 02:45:07;;;;;;;14.60;7.37;;;0.20;1.00;;;;;;4896392;29;20952;-50
2022/03/09 02:47:33;;;;;;;10.90;6.50;;;0.20;1.00;;;;;;4896595;29;20424;-49
2022/03/09 02:50:00;;;;;;;12.87;6.97;;;0.20;1.00;;;;;;4896172;29;20536;-50
2022/03/09 02:52:25;;;;;;;14.97;7.73;;;0.20;1.00;;;;;;4896303;29;20605;-50
2022/03/09 02:54:51;;;;;;;18.37;7.97;;;0.20;1.00;;;;;;4879560;29;20518;-48
2022/03/09 02:57:17;;;;;;;10.40;6.80;;;0.20;1.00;;;;;;4896334;29;20208;-49
2022/03/09 02:59:42;;;;;;;16.23;6.90;;;0.20;1.00;;;;;;4896277;29;20192;-49
2022/03/09 03:02:08;;;;;;;10.83;7.60;;;0.20;1.00;;;;;;4896587;29;20195;-50
2022/03/09 03:04:33;;;;;;;12.63;7.07;;;0.20;1.00;;;;;;4895640;29;20203;-49
2022/03/09 03:06:59;;;;;;;11.93;6.93;;;0.20;1.00;;;;;;4896023;29;20192;-49
2022/03/09 03:09:24;;;;;;;15.90;7.37;;;0.20;1.00;;;;;;4896490;29;20223;-49
2022/03/09 03:11:50;;;;;;;12.53;7.17;;;0.20;1.00;;;;;;4895656;29;20278;-53
2022/03/09 03:14:15;;;;;;;14.60;7.70;;;0.20;1.00;;;;;;4896501;29;20172;-49
2022/03/09 03:16:41;;;;;;;14.40;7.83;;;0.10;1.00;;;;;;4895622;29;20262;-49
2022/03/09 03:19:06;;;;;;;14.30;7.30;;;0.10;1.00;;;;;;4887636;29;20180;-49
2022/03/09 03:21:32;;;;;;;12.30;6.73;;;0.10;1.00;;;;;;4892730;29;20223;-49
2022/03/09 03:23:58;;;;;;;19.47;7.77;;;0.00;1.00;;;;;;4895667;29;20191;-50
2022/03/09 03:26:24;;;;;;;16.73;8.43;;;-0.10;1.00;;;;;;4894373;29;20983;-49
2022/03/09 03:28:51;;;;;;;15.47;8.13;;;-0.20;1.00;;;;;;4895763;29;20439;-50
2022/03/09 03:31:20;;;;;;;14.33;7.13;;;-0.20;1.00;;;;;;4888842;29;20460;-52
2022/03/09 03:33:47;;;;;;;13.93;7.00;;;-0.20;1.00;;;;;;4888976;29;20543;-48
2022/03/09 03:36:14;;;;;;;14.93;7.33;;;-0.20;1.00;;;;;;4895708;29;20866;-49
2022/03/09 03:38:40;;;;;;;12.03;7.30;;;-0.20;99.90;;;;;;4895077;29;20452;-51
2022/03/09 03:41:05;;;;;;;11.70;7.00;;;-0.20;99.90;;;;;;4893045;29;20476;-50
2022/03/09 03:43:31;;;;;;;14.07;7.53;;;-0.10;99.90;;;;;;4886291;29;20236;-48
2022/03/09 03:45:56;;;;;;;14.03;7.50;;;-0.10;80.20;;;;;;4888061;29;20671;-49
2022/03/09 03:48:22;;;;;;;15.37;8.57;;;-0.20;16.40;;;;;;4895670;29;20180;-50
2022/03/09 03:50:47;;;;;;;17.00;7.53;;;-0.10;99.90;;;;;;4896875;29;20192;-49
2022/03/09 03:53:13;;;;;;;14.60;8.20;;;-0.10;99.90;;;;;;4896823;29;20184;-50
2022/03/09 03:55:38;;;;;;;13.13;7.30;;;-0.10;99.90;;;;;;4894425;29;20392;-49
2022/03/09 03:58:04;;;;;;;11.53;7.27;;;0.00;91.10;;;;;;4895601;29;20238;-48
2022/03/09 04:00:29;;;;;;;17.43;7.03;;;0.00;4.20;;;;;;4895155;29;20245;-50
2022/03/09 04:02:55;;;;;;;11.77;7.00;;;0.00;1.00;;;;;;4895505;29;20187;-48
2022/03/09 04:05:20;;;;;;;11.17;6.70;;;0.00;1.00;;;;;;4896345;29;20196;-49
2022/03/09 04:07:46;;;;;;;12.83;7.73;;;0.00;1.00;;;;;;4886671;29;20235;-49
2022/03/09 04:10:12;;;;;;;12.80;7.17;;;0.00;46.60;;;;;;4894126;29;20200;-50
2022/03/09 04:12:38;;;;;;;14.43;7.10;;;0.00;38.80;;;;;;4895263;29;20432;-50
2022/03/09 04:15:04;;;;;;;15.33;7.10;;;0.10;1.00;;;;;;4893456;29;20451;-50
2022/03/09 04:17:41;;;;;;;13.67;8.10;;;0.10;1.00;;;;;;4893599;29;20200;-49
2022/03/09 04:20:07;;;;;;;13.27;7.20;;;0.10;1.00;;;;;;4895131;29;20502;-49
2022/03/09 04:22:32;;;;;;;13.47;6.90;;;0.10;1.00;;;;;;4894072;29;20487;-50
2022/03/09 04:24:58;;;;;;;15.77;7.37;;;0.10;1.00;;;;;;4895210;29;20274;-50
2022/03/09 04:27:23;;;;;;;13.40;7.47;;;0.10;1.00;;;;;;4902620;29;20188;-50
2022/03/09 04:29:49;;;;;;;14.33;6.90;;;0.10;1.00;;;;;;4894953;29;20220;-49
2022/03/09 04:32:14;;;;;;;13.23;7.30;;;0.10;1.00;;;;;;4894583;29;20201;-50
2022/03/09 04:34:40;;;;;;;12.70;7.90;;;0.00;1.00;;;;;;4895054;29;20187;-49
2022/03/09 04:37:06;;;;;;;12.60;7.27;;;0.00;1.00;;;;;;4894208;29;20235;-49
2022/03/09 04:39:31;;;;;;;12.60;7.40;;;0.00;1.00;;;;;;4894705;29;20257;-50
2022/03/09 04:41:57;;;;;;;11.57;7.20;;;0.00;1.00;;;;;;4893811;29;20830;-50
2022/03/09 04:44:22;;;;;;;13.90;7.40;;;0.00;1.00;;;;;;4894949;29;20187;-51
2022/03/09 04:46:48;;;;;;;11.73;7.10;;;0.00;1.00;;;;;;4893195;29;20267;-50
2022/03/09 04:49:13;;;;;;;16.47;7.87;;;0.00;1.00;;;;;;4894667;29;20271;-50
2022/03/09 04:51:39;;;;;;;13.33;7.30;;;0.00;1.00;;;;;;4889848;29;20217;-49
2022/03/09 04:54:04;;;;;;;17.60;7.73;;;0.00;8.70;;;;;;4897052;29;20196;-52
2022/03/09 04:56:30;;;;;;;15.20;8.10;;;0.00;1.30;;;;;;4894392;29;20214;-50
2022/03/09 04:58:55;;;;;;;17.20;7.70;;;0.00;53.00;;;;;;4893471;29;20286;-49
2022/03/09 05:01:21;;;;;;;12.70;7.67;;;0.00;99.90;;;;;;4893828;29;20247;-49
2022/03/09 05:03:46;;;;;;;14.10;7.90;;;0.00;99.90;;;;;;4892979;29;20198;-50
2022/03/09 05:06:13;;;;;;;16.10;8.40;;;0.00;99.90;;;;;;4894446;29;20203;-48
2022/03/09 05:08:39;;;;;;;17.00;7.67;;;0.00;99.90;;;;;;4894261;29;20678;-49
2022/03/09 05:11:04;;;;;;;15.07;8.07;;;0.00;86.90;;;;;;4893824;29;20458;-48
2022/03/09 05:13:30;;;;;;;14.10;8.33;;;0.00;48.40;;;;;;4893508;29;20195;-49
2022/03/09 05:15:55;;;;;;;12.00;7.83;;;0.00;39.70;;;;;;4894189;29;20191;-49
2022/03/09 05:18:21;;;;;;;10.63;7.47;;;0.00;40.00;;;;;;4896676;29;20203;-49
2022/03/09 05:20:47;;;;;;;12.13;8.20;;;-0.10;23.10;;;;;;4897265;29;20700;-50
2022/03/09 05:23:13;;;;;;;11.60;7.10;;;-0.10;67.20;;;;;;4898460;29;21062;-51
2022/03/09 05:25:38;;;;;;;12.80;8.30;;;-0.10;99.90;;;;;;4892653;29;20447;-49
2022/03/09 05:28:04;;;;;;;16.73;8.37;;;-0.10;99.90;;;;;;4898008;29;20759;-50
2022/03/09 05:30:30;;;;;;;11.90;8.17;;;-0.10;99.90;;;;;;4897576;29;20214;-49
2022/03/09 05:32:55;;;;;;;14.87;8.87;;;-0.10;99.90;;;;;;4898010;29;20195;-50
2022/03/09 05:35:21;;;;;;;16.53;8.40;;;-0.20;98.50;;;;;;4896808;29;20199;-51
2022/03/09 05:37:47;;;;;;;12.00;7.10;;;-0.20;99.90;;;;;;4896160;29;20543;-52
2022/03/09 05:40:14;;;;;;;13.97;7.57;;;-0.20;99.90;;;;;;4903718;29;20246;-51
2022/03/09 05:42:40;;;;;;;13.83;8.83;;;-0.20;99.90;;;;;;4898444;29;20621;-52
2022/03/09 05:45:06;;;;;;;19.50;9.20;;;-0.20;99.90;;;;;;4899836;29;20471;-52
2022/03/09 05:47:32;;;;;;;11.90;7.97;;;-0.20;99.90;;;;;;4896911;29;20196;-52
2022/03/09 05:49:57;;;;;;;16.60;8.87;;;-0.20;99.90;;;;;;4897189;29;20443;-52
2022/03/09 05:52:23;;;;;;;13.90;7.90;;;-0.20;99.90;;;;;;4896847;29;20199;-54
2022/03/09 05:54:48;;;;;;;15.40;8.50;;;-0.20;99.90;;;;;;4897605;29;20235;-52
2022/03/09 05:57:19;;;;;;;18.73;9.83;;;-0.30;99.90;;;;;;4896511;29;20208;-50
2022/03/09 05:59:45;;;;;;;17.53;8.70;;;-0.20;99.90;;;;;;4897259;29;20275;-52
2022/03/09 06:02:10;;;;;;;22.53;9.60;;;-0.20;99.90;;;;;;4897035;29;20511;-51
2022/03/09 06:04:36;;;;;;;19.60;8.70;;;-0.20;99.90;;;;;;4896919;29;20626;-53
2022/03/09 06:07:02;;;;;;;19.10;9.63;;;-0.10;99.90;;;;;;4896717;29;20602;-51
2022/03/09 06:09:28;;;;;;;16.70;9.00;;;-0.10;99.90;;;;;;4897278;29;20191;-51
2022/03/09 06:11:54;;;;;;;23.77;9.70;;;-0.10;99.90;;;;;;4896260;29;20463;-53
2022/03/09 06:14:19;;;;;;;18.50;10.50;;;-0.10;99.90;;;;;;4897432;29;20835;-51
2022/03/09 06:16:47;;;;;;;21.20;9.27;;;0.00;99.90;;;;;;4894674;29;20199;-52
2022/03/09 06:19:14;;;;;;;14.87;9.40;;;0.00;99.90;;;;;;4896449;29;20197;-51
2022/03/09 06:21:39;;;;;;;14.37;8.57;;;0.10;99.90;;;;;;4896051;29;20594;-52
2022/03/09 06:24:06;;;;;;;15.47;8.27;;;0.20;99.90;;;;;;4896591;29;20543;-52
2022/03/09 06:26:31;;;;;;;12.60;7.60;;;0.40;99.90;;;;;;4903854;29;20191;-51
2022/03/09 06:28:57;;;;;;;11.03;7.63;;;0.50;44.80;;;;;;4879771;29;20523;-56
2022/03/09 06:31:22;;;;;;;13.20;7.97;;;0.50;1.00;;;;;;4896466;29;20203;-52
2022/03/09 06:33:48;;;;;;;13.47;7.73;;;0.60;1.00;;;;;;4896864;29;20267;-52
2022/03/09 06:36:13;;;;;;;13.60;8.33;;;0.70;1.00;;;;;;4895657;29;20278;-52
2022/03/09 06:38:39;;;;;;;16.53;8.20;;;0.80;1.00;;;;;;4894749;29;20195;-52
2022/03/09 06:41:04;;;;;;;17.13;8.93;;;1.10;1.00;;;;;;4895979;29;20220;-52
2022/03/09 06:43:30;;;;;;;15.57;7.10;;;1.40;1.00;;;;;;4894350;29;20219;-51
2022/03/09 06:45:55;;;;;;;17.90;7.60;;;1.80;99.90;;;;;;4895288;29;20192;-51
2022/03/09 06:48:21;;;;;;;10.13;6.60;;;2.10;99.90;;;;;;4895371;29;20194;-52
2022/03/09 06:50:46;;;;;;;12.77;7.80;;;2.30;99.90;;;;;;4893342;29;20210;-52
2022/03/09 06:53:12;;;;;;;20.03;7.70;;;2.40;90.10;;;;;;4894746;29;20204;-51
2022/03/09 06:55:38;;;;;;;15.00;7.53;;;2.60;32.50;;;;;;4895695;29;20196;-51
2022/03/09 06:58:04;;;;;;;8.97;6.63;;;2.70;1.00;;;;;;4894697;29;20561;-52
2022/03/09 07:00:29;;;;;;;14.23;7.80;;;2.70;1.00;;;;;;4895558;29;20670;-52
2022/03/09 07:02:56;;;;;;;14.10;7.83;;;2.70;1.00;;;;;;4896291;29;20487;-50
2022/03/09 07:05:22;;;;;;;14.87;7.43;;;2.80;1.00;;;;;;4893727;29;20279;-52
2022/03/09 07:07:49;;;;;;;18.33;8.13;;;2.90;1.00;;;;;;4894274;29;20914;-51
2022/03/09 07:10:14;;;;;;;12.53;7.93;;;3.10;1.00;;;;;;4894498;29;20539;-52
2022/03/09 07:12:42;;;;;;;14.67;7.60;;;3.20;1.00;;;;;;4896075;29;20515;-53
2022/03/09 07:15:08;;;;;;;14.60;7.83;;;3.20;1.00;;;;;;4893043;29;20211;-51
2022/03/09 07:17:34;;;;;;;15.93;7.70;;;3.50;1.00;;;;;;4896249;29;20929;-52
2022/03/09 07:19:59;;;;;;;13.63;7.60;;;3.60;1.00;;;;;;4895427;29;20468;-51
2022/03/09 07:22:25;;;;;;;19.80;8.30;;;3.70;1.00;;;;;;4896162;29;20230;-52
2022/03/09 07:24:50;;;;;;;14.10;7.63;;;4.00;1.00;;;;;;4895983;29;20198;-51
2022/03/09 07:27:16;;;;;;;12.10;6.80;;;4.60;1.00;;;;;;4895843;29;20180;-51
2022/03/09 07:29:42;;;;;;;16.87;7.70;;;5.30;1.00;;;;;;4880051;29;20218;-52
2022/03/09 07:32:08;;;;;;;15.23;7.67;;;6.10;1.00;;;;;;4898038;29;20184;-52
2022/03/09 07:34:34;;;;;;;11.27;6.80;;;6.40;1.00;;;;;;4910426;29;20195;-52
2022/03/09 07:37:00;;;;;;;10.30;6.97;;;6.20;1.00;;;;;;4899115;29;20527;-51
2022/03/09 07:39:27;;;;;;;12.77;7.37;;;6.10;1.00;;;;;;4893809;29;20435;-52
2022/03/09 07:41:54;;;;;;;20.60;8.07;;;6.00;1.00;;;;;;4895754;29;20216;-51
2022/03/09 07:44:20;;;;;;;20.67;7.03;;;5.90;1.00;;;;;;4895940;29;20523;-52
2022/03/09 07:46:45;;;;;;;13.97;7.63;;;6.00;1.00;;;;;;4895145;29;20523;-52
2022/03/09 07:49:11;;;;;;;13.27;7.00;;;6.80;1.00;;;;;;4895693;29;20183;-51
2022/03/09 07:51:36;;;;;;;15.43;7.43;;;7.60;1.00;;;;;;4895994;29;20657;-52
2022/03/09 07:54:02;;;;;;;14.10;8.07;;;8.20;1.00;;;;;;4878801;29;20191;-51
2022/03/09 07:56:27;;;;;;;13.53;7.23;;;8.70;1.00;;;;;;4895539;29;20661;-52
2022/03/09 07:58:53;;;;;;;13.63;7.17;;;9.20;1.00;;;;;;4894750;29;20198;-51
2022/03/09 08:01:18;;;;;;;12.13;6.40;;;9.90;1.00;;;;;;4895288;29;20218;-51
2022/03/09 08:03:45;;;;;;;18.10;7.37;;;10.60;1.00;;;;;;4894793;29;20681;-52
2022/03/09 08:06:10;;;;;;;9.47;6.37;;;11.20;1.00;;;;;;4877714;29;20180;-52
2022/03/09 08:08:36;;;;;;;10.03;6.60;;;11.60;1.00;;;;;;4865812;29;20532;-51
2022/03/09 08:11:02;;;;;;;12.90;7.40;;;11.40;1.00;;;;;;4876445;29;20248;-52
2022/03/09 08:13:27;;;;;;;11.50;6.77;;;11.50;1.00;;;;;;4876262;29;20188;-52
2022/03/09 08:15:53;;;;;;;9.60;6.40;;;11.90;1.00;;;;;;4875839;29;20293;-52
2022/03/09 08:18:18;;;;;;;12.23;7.23;;;12.20;1.00;;;;;;4874583;29;20208;-52
2022/03/09 08:20:44;;;;;;;18.90;6.13;;;12.50;1.00;;;;;;4874136;29;20220;-52
2022/03/09 08:23:10;;;;;;;13.10;7.30;;;12.70;1.00;;;;;;4875474;29;20279;-52
2022/03/09 08:25:36;;;;;;;16.87;6.97;;;12.90;1.00;;;;;;4880303;29;20627;-52
2022/03/09 08:28:01;;;;;;;16.73;6.60;;;13.10;1.00;;;;;;4878975;29;20176;-52
2022/03/09 08:30:27;;;;;;;11.87;7.10;;;13.00;1.00;;;;;;4876431;29;20208;-52
2022/03/09 08:32:53;;;;;;;10.83;6.70;;;12.80;1.00;;;;;;4884567;29;20203;-51
2022/03/09 08:35:19;;;;;;;13.80;7.20;;;12.80;1.00;;;;;;4876399;29;20429;-53
2022/03/09 08:37:44;;;;;;;14.87;6.67;;;12.80;1.00;;;;;;4876498;29;20297;-51
2022/03/09 08:40:11;;;;;;;16.03;6.53;;;12.90;99.90;;;;;;4876300;29;20204;-51
2022/03/09 08:42:37;;;;;;;12.90;6.40;;;13.30;99.90;;;;;;4876467;29;20196;-57
2022/03/09 08:45:03;;;;;;;9.03;6.10;;;13.40;99.90;;;;;;4876043;29;20471;-52
2022/03/09 08:47:29;;;;;;;12.03;6.70;;;13.70;99.90;;;;;;4875369;29;20425;-51
2022/03/09 08:49:55;;;;;;;13.53;6.97;;;13.70;99.90;;;;;;4876063;29;20788;-51
2022/03/09 08:52:20;;;;;;;16.70;7.70;;;13.80;99.90;;;;;;4877404;29;20200;-51
2022/03/09 08:54:46;;;;;;;16.63;6.23;;;13.70;99.90;;;;;;4879532;29;20572;-51
2022/03/09 08:57:11;;;;;;;21.03;7.97;;;14.00;99.90;;;;;;4879394;29;20192;-51
2022/03/09 08:59:37;;;;;;;13.10;6.53;;;14.00;99.90;;;;;;4880223;29;20195;-57
2022/03/09 09:02:03;;;;;;;19.30;8.07;;;14.30;99.90;;;;;;4879459;29;20219;-52
2022/03/09 09:04:28;;;;;;;15.10;6.87;;;14.50;99.90;;;;;;4869897;29;20811;-53
2022/03/09 09:06:54;;;;;;;16.40;7.50;;;14.70;99.90;;;;;;4878991;29;20195;-50
2022/03/09 09:09:20;;;;;;;14.70;7.50;;;14.70;99.90;;;;;;4879400;29;20724;-52
2022/03/09 09:11:46;;;;;;;11.00;7.40;;;14.50;99.90;;;;;;4864295;29;20206;-51
2022/03/09 09:14:13;;;;;;;12.23;7.60;;;14.60;99.90;;;;;;4883554;29;20455;-51
2022/03/09 09:16:41;;;;;;;18.27;8.60;;;14.50;99.90;;;;;;4878623;29;20460;-52
2022/03/09 09:19:07;;;;;;;15.00;7.67;;;14.40;99.90;;;;;;4879922;29;20453;-51
2022/03/09 09:21:32;;;;;;;11.70;7.50;;;14.10;99.90;;;;;;4885686;29;20532;-51
2022/03/09 09:23:58;;;;;;;15.23;8.17;;;13.80;99.90;;;;;;4880382;29;20172;-52
2022/03/09 09:26:23;;;;;;;15.87;7.50;;;13.40;99.90;;;;;;4883500;29;20571;-53
2022/03/09 09:28:49;;;;;;;15.00;7.00;;;13.20;99.90;;;;;;4880480;29;20259;-51
2022/03/09 09:31:14;;;;;;;12.83;7.33;;;12.80;99.90;;;;;;4881109;29;20221;-51
2022/03/09 09:33:40;;;;;;;18.17;7.73;;;12.60;99.90;;;;;;4880585;29;20180;-52
2022/03/09 09:36:05;;;;;;;16.27;7.67;;;12.10;99.90;;;;;;4879806;29;20252;-51
2022/03/09 09:38:31;;;;;;;16.03;6.63;;;12.10;99.90;;;;;;4879465;29;20196;-51
2022/03/09 09:40:57;;;;;;;14.00;7.60;;;11.90;99.90;;;;;;4880665;29;20223;-51
2022/03/09 09:43:24;;;;;;;13.10;7.23;;;11.60;99.90;;;;;;4868247;29;20623;-50
2022/03/09 09:45:51;;;;;;;14.97;7.77;;;11.30;99.90;;;;;;4880129;29;20444;-50
2022/03/09 09:48:19;;;;;;;8.80;6.57;;;11.20;99.90;;;;;;4879631;29;20421;-51
2022/03/09 09:50:45;;;;;;;13.33;7.03;;;11.20;99.90;;;;;;4880545;29;20536;-50
2022/03/09 09:53:13;;;;;;;11.70;7.03;;;11.00;99.90;;;;;;4880340;29;20866;-51
2022/03/09 09:55:40;;;;;;;15.67;6.63;;;10.70;99.90;;;;;;4879974;29;20815;-52
2022/03/09 09:58:05;;;;;;;10.33;6.33;;;10.70;99.90;;;;;;4879686;29;20444;-52
2022/03/09 10:00:32;;;;;;;13.90;7.30;;;10.60;99.90;;;;;;4880110;29;21071;-52
2022/03/09 10:02:58;;;;;;;11.97;6.47;;;10.60;99.90;;;;;;4879827;29;20201;-51
2022/03/09 10:05:24;;;;;;;10.20;6.80;;;10.60;99.90;;;;;;4879520;29;20424;-52
2022/03/09 10:08:05;;;;;;;14.77;6.40;;;10.40;99.90;;;;;;4862465;29;20578;-53
2022/03/09 10:10:30;;;;;;;9.40;6.00;;;10.30;99.90;;;;;;4879097;29;20448;-52
2022/03/09 10:13:35;;;;;;;12.70;6.87;;;10.50;99.90;;;;;;4879295;29;20927;-56
2022/03/09 10:16:11;;;;;;;9.90;7.00;;;10.80;99.90;;;;;;4839681;29;20670;-52
2022/03/09 10:18:39;;;;;;;10.87;6.57;;;11.10;99.90;;;;;;4882462;29;20439;-51
2022/03/09 10:21:37;;;;;;;9.10;6.70;;;11.30;99.90;;;;;;4884236;29;20465;-50
2022/03/09 10:24:09;;;;;;;9.70;7.07;;;11.50;99.90;;;;;;4869363;29;20445;-53
2022/03/09 10:26:34;;;;;;;8.80;6.07;;;11.30;99.90;;;;;;4879498;29;20428;-52
2022/03/09 10:29:05;;;;;;;10.23;7.00;;;11.20;99.90;;;;;;4879257;29;20440;-52
2022/03/09 10:31:32;;;;;;;13.17;7.30;;;11.20;99.90;;;;;;4877892;29;20196;-52
2022/03/09 10:34:08;;;;;;;13.77;7.10;;;11.30;99.90;;;;;;4887871;29;20442;-56
2022/03/09 10:36:34;;;;;;;11.07;7.03;;;11.40;99.90;;;;;;4878860;29;20576;-55
2022/03/09 10:39:16;;;;;;;14.70;7.60;;;11.50;99.90;;;;;;4879962;29;20464;-53
2022/03/09 10:41:46;;;;;;;12.00;7.73;;;11.40;99.90;;;;;;4882801;29;20562;-56
2022/03/09 10:44:12;;;;;;;11.20;7.20;;;11.40;99.90;;;;;;4873926;29;20445;-54
2022/03/09 10:46:47;;;;;;;12.73;7.07;;;11.50;99.90;;;;;;4879868;29;20441;-51
2022/03/09 10:49:16;;;;;;;11.10;7.10;;;12.00;99.90;;;;;;4879143;29;20431;-52
2022/03/09 10:51:52;;;;;;;15.63;8.10;;;12.50;99.90;;;;;;4878432;29;20464;-57
2022/03/09 10:54:22;;;;;;;16.30;7.87;;;13.70;99.90;;;;;;4878015;29;20433;-53
2022/03/09 10:56:48;;;;;;;13.73;8.20;;;14.70;99.90;;;;;;4877868;29;20441;-51
2022/03/09 10:59:20;;;;;;;14.87;7.37;;;15.70;99.90;;;;;;4878697;29;20428;-51
2022/03/09 11:02:08;;;;;;;16.03;7.57;;;16.60;99.90;;;;;;4878177;29;20646;-50
2022/03/09 11:04:35;;;;;;;18.77;7.80;;;17.40;99.90;;;;;;4877935;29;20418;-52
2022/03/09 11:07:01;;;;;;;13.53;7.60;;;17.80;99.90;;;;;;4877869;29;20801;-51
2022/03/09 11:09:27;;;;;;;18.90;8.30;;;18.20;99.90;;;;;;4878193;29;20836;-61
2022/03/09 11:11:53;;;;;;;12.20;8.20;;;18.60;99.90;;;;;;4877885;29;20433;-52
2022/03/09 11:14:20;;;;;;;19.23;7.40;;;18.40;99.90;;;;;;4879743;29;20185;-52
2022/03/09 11:16:48;;;;;;;15.87;8.03;;;18.90;99.90;;;;;;4877933;29;20429;-51
2022/03/09 11:19:16;;;;;;;15.23;8.10;;;19.30;99.90;;;;;;4877557;29;20440;-52
2022/03/09 11:21:42;;;;;;;14.50;8.10;;;18.90;99.90;;;;;;4877619;29;20479;-53
2022/03/09 11:24:10;;;;;;;19.37;8.20;;;18.50;99.90;;;;;;4877425;29;20424;-52
2022/03/09 11:26:43;;;;;;;11.63;7.80;;;19.00;99.90;;;;;;4877825;29;20524;-55
2022/03/09 11:29:10;;;;;;;16.20;7.83;;;19.50;99.90;;;;;;4877486;29;20515;-52
2022/03/09 11:31:44;;;;;;;17.33;7.80;;;19.60;99.90;;;;;;4877473;29;20433;-51
2022/03/09 11:34:33;;;;;;;12.73;7.90;;;19.90;99.90;;;;;;4877149;29;21258;-52
2022/03/09 11:37:05;;;;;;;11.83;7.60;;;20.30;99.90;;;;;;4877689;29;20577;-52
2022/03/09 11:39:30;;;;;;;10.60;6.80;;;20.90;99.90;;;;;;4877100;29;20440;-52
2022/03/09 11:42:20;;;;;;;10.93;7.30;;;20.90;99.90;;;;;;4877886;29;20476;-56
2022/03/09 11:44:50;;;;;;;20.20;7.67;;;20.60;99.90;;;;;;4877415;29;20188;-52
2022/03/09 11:47:17;;;;;;;17.67;8.33;;;20.90;99.90;;;;;;4877574;29;20393;-52
2022/03/09 11:49:45;;;;;;;12.73;7.97;;;21.20;99.90;;;;;;4877480;29;20428;-52
2022/03/09 11:52:19;;;;;;;11.03;7.40;;;20.70;99.90;;;;;;4877892;29;20476;-52
2022/03/09 11:54:48;;;;;;;16.87;8.07;;;20.40;99.90;;;;;;4876782;29;20943;-54
2022/03/09 11:57:15;;;;;;;11.50;7.30;;;20.70;99.90;;;;;;4877832;29;20849;-53
2022/03/09 12:00:02;;;;;;;10.70;7.70;;;21.00;99.90;;;;;;4877452;29;20447;-52
2022/03/09 12:02:45;;;;;;;13.03;7.97;;;20.70;99.90;;;;;;4867309;29;20448;-49
2022/03/09 12:05:31;;;;;;;13.93;8.57;;;20.60;99.90;;;;;;4876506;29;20529;-49
2022/03/09 12:08:11;;;;;;;13.30;7.83;;;20.70;99.90;;;;;;4876812;29;20532;-51
2022/03/09 12:10:56;;;;;;;9.80;7.77;;;20.70;99.90;;;;;;4860463;29;20484;-50
2022/03/09 12:13:25;;;;;;;10.17;7.70;;;20.70;99.90;;;;;;4877397;29;20424;-50
2022/03/09 12:16:05;;;;;;;12.30;7.13;;;20.40;99.90;;;;;;4876657;29;20801;-49
2022/03/09 12:18:40;;;;;;;13.33;8.80;;;20.90;99.90;;;;;;4877159;29;20462;-49
2022/03/09 12:21:07;;;;;;;13.37;7.43;;;21.00;99.90;;;;;;4877250;29;20487;-52
2022/03/09 12:23:34;;;;;;;15.73;8.40;;;20.80;99.90;;;;;;4876676;29;20421;-51
2022/03/09 12:26:01;;;;;;;13.60;7.83;;;21.20;99.90;;;;;;4876850;29;20774;-51
2022/03/09 12:28:34;;;;;;;13.13;7.97;;;21.40;99.90;;;;;;4875878;29;20885;-49
2022/03/09 12:31:19;;;;;;;14.70;7.50;;;21.60;99.90;;;;;;4876913;29;21191;-51
2022/03/09 12:33:49;;;;;;;10.47;7.93;;;21.70;99.90;;;;;;4876381;29;20448;-50
2022/03/09 12:36:25;;;;;;;8.87;7.17;;;21.80;99.90;;;;;;4876880;29;20421;-51
2022/03/09 12:38:54;;;;;;;11.07;7.30;;;22.00;99.90;;;;;;4876516;29;20432;-51
2022/03/09 12:41:39;;;;;;;10.90;7.60;;;22.00;99.90;;;;;;4876195;29;20559;-50
2022/03/09 12:44:10;;;;;;;10.13;6.93;;;22.10;99.90;;;;;;4875382;29;20987;-50
2022/03/09 12:46:39;;;;;;;17.03;7.90;;;21.70;99.90;;;;;;4876066;29;20928;-51
2022/03/09 12:49:29;;;;;;;13.00;7.30;;;21.50;99.90;;;;;;4867623;29;20930;-49
2022/03/09 12:51:58;;;;;;;12.43;7.60;;;21.10;99.90;;;;;;4862772;29;20559;-49